Time;durP1;ratioP1;P1;durP2;ratioP2;P2;SDS_P1;SDS_P2;PMS_P1;PMS_P2;Temp;Humidity;BMP_temperature;BMP_pressure;BME280_temperature;BME280_humidity;BME280_pressure;Samples;Min_cycle;Max_cycle;Signal;HPM_P1;HPM_P2
2023/04/13 00:00:35;;;;;;;;;4.00;2.00;;;;;9.66;59.46;99937.31;5060040;28;45390;-68
2023/04/13 00:03:02;;;;;;;;;0.25;0.00;;;;;9.67;59.07;99919.00;5060318;27;45717;-69
2023/04/13 00:05:29;;;;;;;;;3.75;1.00;;;;;9.70;59.23;99937.25;5057782;27;46712;-69
2023/04/13 00:07:56;;;;;;;;;1.25;1.00;;;;;9.73;59.04;99944.25;5070289;28;45481;-69
2023/04/13 00:10:22;;;;;;;;;3.75;1.00;;;;;9.69;58.80;99943.38;5073384;27;45856;-69
2023/04/13 00:12:51;;;;;;;;;2.25;1.75;;;;;9.58;59.32;99958.28;5053134;28;45627;-69
2023/04/13 00:15:21;;;;;;;;;4.00;1.00;;;;;9.57;59.25;99940.00;5057846;27;46692;-69
2023/04/13 00:17:46;;;;;;;;;3.75;1.00;;;;;9.58;59.49;99953.03;5076878;27;45480;-71
2023/04/13 00:20:13;;;;;;;;;2.00;2.00;;;;;9.42;59.42;99925.25;5070342;27;45468;-69
2023/04/13 00:22:43;;;;;;;;;1.25;1.00;;;;;9.49;59.85;99950.47;5055577;27;45898;-69
2023/04/13 00:25:11;;;;;;;;;2.00;2.00;;;;;9.51;60.29;99940.88;5064183;28;47022;-69
2023/04/13 00:27:41;;;;;;;;;1.75;1.00;;;;;9.48;59.98;99946.16;5054825;27;45398;-68
2023/04/13 00:30:11;;;;;;;;;2.00;1.00;;;;;9.53;59.77;99954.81;5071767;27;46739;-69
2023/04/13 00:32:38;;;;;;;;;3.00;1.00;;;;;9.58;59.69;99944.34;5063779;28;45462;-69
2023/04/13 00:35:04;;;;;;;;;3.00;1.75;;;;;9.63;59.65;99947.78;5069662;27;45497;-69
2023/04/13 00:37:31;;;;;;;;;1.00;1.00;;;;;9.63;59.67;99951.25;5053420;27;46269;-69
2023/04/13 00:39:58;;;;;;;;;5.75;1.00;;;;;9.60;59.84;99934.75;5062539;27;45472;-69
2023/04/13 00:42:24;;;;;;;;;3.25;1.00;;;;;9.63;59.87;99950.41;5075955;27;45575;-69
2023/04/13 00:44:50;;;;;;;;;1.50;1.00;;;;;9.72;59.65;99952.94;5069919;27;46390;-70
2023/04/13 00:47:25;;;;;;;;;4.75;1.00;;;;;9.67;59.62;99947.75;5068179;27;45472;-69
2023/04/13 00:49:52;;;;;;;;;3.50;1.00;;;;;9.50;60.14;99923.47;5056492;27;45513;-69
2023/04/13 00:52:20;;;;;;;;;2.50;1.00;;;;;9.65;59.82;99948.66;5065388;27;45593;-69
2023/04/13 00:54:50;;;;;;;;;1.00;1.00;;;;;9.64;59.90;99942.56;5059667;27;45441;-68
2023/04/13 00:57:17;;;;;;;;;3.50;0.00;;;;;9.72;59.94;99932.91;5065340;27;45464;-69
2023/04/13 00:59:43;;;;;;;;;2.00;1.00;;;;;9.80;59.94;99950.28;5059974;27;45509;-68
2023/04/13 01:02:09;;;;;;;;;4.50;2.00;;;;;9.85;59.84;99938.06;5059533;27;45319;-69
2023/04/13 01:04:36;;;;;;;;;3.00;1.75;;;;;9.66;59.95;99935.56;5058088;27;48109;-70
2023/04/13 01:07:10;;;;;;;;;3.25;1.00;;;;;9.60;60.35;99935.59;5075230;27;45299;-70
2023/04/13 01:09:42;;;;;;;;;2.25;2.00;;;;;9.58;60.36;99942.59;5059937;27;45429;-70
2023/04/13 01:12:32;;;;;;;;;3.25;1.50;;;;;9.49;60.26;99934.78;5062145;27;45665;-68
2023/04/13 01:15:01;;;;;;;;;4.00;2.00;;;;;9.44;60.39;99929.59;5055487;27;45621;-69
2023/04/13 01:17:31;;;;;;;;;5.00;1.25;;;;;9.49;60.65;99940.03;5055444;27;45576;-68
2023/04/13 01:20:00;;;;;;;;;3.75;2.00;;;;;9.43;60.62;99929.63;5055611;27;45425;-69
2023/04/13 01:22:31;;;;;;;;;3.00;1.75;;;;;9.51;60.30;99948.72;5054607;27;45457;-68
2023/04/13 01:25:35;;;;;;;;;7.00;2.00;;;;;9.57;60.31;99953.94;5055925;28;45815;-69
2023/04/13 01:28:06;;;;;;;;;3.75;1.25;;;;;9.62;60.07;99959.13;5090528;27;46073;-70
2023/04/13 01:30:34;;;;;;;;;4.25;3.25;;;;;9.66;60.09;99961.72;5059329;27;45802;-69
2023/04/13 01:33:04;;;;;;;;;3.00;3.00;;;;;9.59;59.98;99954.78;5059176;27;45449;-68
2023/04/13 01:35:30;;;;;;;;;1.25;1.25;;;;;9.68;60.03;99954.75;5059281;27;45299;-69
2023/04/13 01:37:57;;;;;;;;;2.00;1.00;;;;;9.72;59.45;99950.34;5072935;27;45690;-69
2023/04/13 01:40:27;;;;;;;;;2.75;1.00;;;;;9.74;59.70;99941.59;5065492;27;45484;-68
2023/04/13 01:42:53;;;;;;;;;2.75;2.00;;;;;9.77;59.34;99951.16;5078262;27;46228;-68
2023/04/13 01:45:23;;;;;;;;;2.75;2.50;;;;;9.76;58.91;99963.38;5076003;28;45612;-69
2023/04/13 01:48:08;;;;;;;;;4.50;2.75;;;;;9.67;59.29;99952.97;5090329;27;45361;-69
2023/04/13 01:50:39;;;;;;;;;3.00;1.50;;;;;9.72;59.35;99952.94;5075394;27;45430;-68
2023/04/13 01:53:14;;;;;;;;;4.25;2.00;;;;;9.70;59.09;99950.34;5077613;27;45461;-69
2023/04/13 01:55:42;;;;;;;;;4.25;2.00;;;;;9.71;59.41;99949.47;5075827;28;46097;-68
2023/04/13 01:58:12;;;;;;;;;3.25;2.00;;;;;9.52;58.99;99932.19;5073137;27;45380;-69
2023/04/13 02:00:38;;;;;;;;;8.75;2.00;;;;;9.73;58.89;99976.50;5094801;27;45402;-68
2023/04/13 02:03:07;;;;;;;;;3.75;2.50;;;;;9.73;59.05;99973.88;5075908;27;45316;-69
2023/04/13 02:05:36;;;;;;;;;4.00;2.00;;;;;9.75;58.51;99972.13;5074761;27;45472;-69
2023/04/13 02:08:04;;;;;;;;;4.00;2.00;;;;;9.75;58.60;99974.72;5078040;27;45599;-69
2023/04/13 02:10:31;;;;;;;;;2.00;2.00;;;;;9.74;58.65;99972.97;5077638;27;45421;-69
2023/04/13 02:12:57;;;;;;;;;3.50;3.00;;;;;9.64;58.72;99960.00;5078113;27;45353;-69
2023/04/13 02:15:23;;;;;;;;;3.25;2.75;;;;;9.66;58.70;99964.34;5073463;27;47139;-69
2023/04/13 02:17:49;;;;;;;;;5.00;3.75;;;;;9.60;58.68;99953.03;5073369;27;45542;-69
2023/04/13 02:20:15;;;;;;;;;3.00;1.00;;;;;9.61;58.65;99973.97;5074905;27;45559;-69
2023/04/13 02:22:42;;;;;;;;;3.00;3.00;;;;;9.62;58.65;99985.28;5075041;27;45438;-69
2023/04/13 02:25:14;;;;;;;;;4.25;2.50;;;;;9.46;59.06;99968.81;5094145;27;47322;-69
2023/04/13 02:27:40;;;;;;;;;4.00;1.25;;;;;9.61;59.10;99978.28;5093446;27;45466;-69
2023/04/13 02:30:08;;;;;;;;;5.00;1.75;;;;;9.52;59.06;99985.31;5063560;27;45546;-69
2023/04/13 02:32:40;;;;;;;;;2.25;1.75;;;;;9.54;58.95;99993.19;5076386;27;45724;-69
2023/04/13 02:35:09;;;;;;;;;5.25;2.50;;;;;9.58;59.44;99997.47;5067424;28;45713;-68
2023/04/13 02:37:38;;;;;;;;;2.00;1.75;;;;;9.52;58.91;99984.47;5076275;27;45807;-69
2023/04/13 02:40:07;;;;;;;;;2.00;2.00;;;;;9.60;59.23;99982.66;5067650;28;45630;-69
2023/04/13 02:42:32;;;;;;;;;2.00;1.25;;;;;9.58;59.29;99994.88;5059694;27;45491;-68
2023/04/13 02:44:58;;;;;;;;;1.25;1.00;;;;;9.52;59.33;99990.56;5065972;27;46353;-69
2023/04/13 02:47:23;;;;;;;;;2.50;2.50;;;;;9.58;59.41;100005.31;5077368;27;45401;-69
2023/04/13 02:49:49;;;;;;;;;4.75;2.00;;;;;9.60;59.61;99993.13;5057351;27;45426;-70
2023/04/13 02:52:15;;;;;;;;;4.75;1.50;;;;;9.58;59.98;100004.47;5092895;27;45469;-69
2023/04/13 02:54:42;;;;;;;;;3.25;2.00;;;;;9.43;59.78;99950.53;5053161;28;45659;-70
2023/04/13 02:57:12;;;;;;;;;5.50;3.00;;;;;9.62;59.43;100004.44;5053331;28;45445;-69
2023/04/13 02:59:39;;;;;;;;;4.50;1.25;;;;;9.63;59.51;100002.69;5053818;28;45559;-70
2023/04/13 03:02:05;;;;;;;;;6.25;3.00;;;;;9.62;59.88;99995.75;5062038;27;45754;-69
2023/04/13 03:04:31;;;;;;;;;2.00;1.00;;;;;9.55;59.53;99987.06;5072291;27;46189;-70
2023/04/13 03:06:57;;;;;;;;;3.50;2.25;;;;;9.62;59.15;100006.19;5062186;28;45548;-69
2023/04/13 03:09:24;;;;;;;;;2.25;2.25;;;;;9.57;59.38;100002.75;5065143;28;45438;-68
2023/04/13 03:11:50;;;;;;;;;4.00;2.00;;;;;9.44;59.33;100004.53;5073831;28;46003;-69
2023/04/13 03:14:22;;;;;;;;;2.75;1.00;;;;;9.55;59.25;100002.75;5062466;28;45523;-69
2023/04/13 03:16:48;;;;;;;;;8.25;2.00;;;;;9.56;59.54;100004.47;5071816;28;45783;-70
2023/04/13 03:19:15;;;;;;;;;4.25;2.00;;;;;9.52;59.48;100011.47;5074085;28;45418;-70
2023/04/13 03:21:45;;;;;;;;;3.00;2.00;;;;;9.51;59.16;100009.72;5078265;28;45600;-68
2023/04/13 03:24:11;;;;;;;;;0.00;0.00;;;;;9.50;59.71;100010.59;5076500;28;45538;-68
2023/04/13 03:26:37;;;;;;;;;3.00;1.00;;;;;9.49;59.65;100015.84;5088927;27;45479;-69
2023/04/13 03:29:03;;;;;;;;;2.75;2.75;;;;;9.51;59.75;100024.53;5068751;27;45748;-68
2023/04/13 03:31:31;;;;;;;;;2.00;1.75;;;;;9.46;59.82;100021.09;5058423;27;45379;-68
2023/04/13 03:33:57;;;;;;;;;3.50;2.00;;;;;9.45;59.65;100015.00;5076660;28;46391;-69
2023/04/13 03:36:23;;;;;;;;;3.25;2.00;;;;;9.46;59.97;100035.00;5076903;28;45571;-69
2023/04/13 03:38:49;;;;;;;;;4.00;2.00;;;;;9.48;60.00;100035.88;5073280;28;45517;-69
2023/04/13 03:41:15;;;;;;;;;5.50;2.00;;;;;9.44;59.93;100031.53;5074182;27;45605;-69
2023/04/13 03:43:40;;;;;;;;;7.25;2.00;;;;;9.45;60.21;100030.69;5071980;28;47803;-70
2023/04/13 03:46:06;;;;;;;;;3.50;2.00;;;;;9.34;60.11;100020.25;5076531;28;45319;-70
2023/04/13 03:48:32;;;;;;;;;5.25;3.00;;;;;9.40;59.82;100026.34;5077816;28;45512;-69
2023/04/13 03:50:58;;;;;;;;;5.00;2.00;;;;;9.35;60.35;100021.16;5076392;28;45545;-69
2023/04/13 03:53:24;;;;;;;;;1.00;1.00;;;;;9.33;60.11;100029.00;5073431;28;45509;-69
2023/04/13 03:55:51;;;;;;;;;5.00;2.00;;;;;9.41;60.12;100041.16;5073014;28;45511;-68
2023/04/13 03:58:17;;;;;;;;;6.25;2.75;;;;;9.31;60.49;100033.34;5088843;27;45454;-68
2023/04/13 04:00:43;;;;;;;;;4.00;1.00;;;;;9.35;60.48;100052.50;5073228;28;45425;-69
2023/04/13 04:03:09;;;;;;;;;2.50;2.00;;;;;9.37;60.87;100069.03;5073247;28;46357;-69
2023/04/13 04:05:38;;;;;;;;;3.50;1.50;;;;;9.31;60.63;100053.38;5089487;27;45387;-69
2023/04/13 04:08:04;;;;;;;;;1.75;1.75;;;;;9.31;60.54;100067.31;5077142;27;45671;-69
2023/04/13 04:10:29;;;;;;;;;2.25;1.25;;;;;9.36;60.79;100066.44;5078012;28;45384;-68
2023/04/13 04:12:56;;;;;;;;;3.00;3.00;;;;;9.28;60.08;100054.28;5078965;28;46546;-69
2023/04/13 04:15:22;;;;;;;;;4.00;2.00;;;;;9.31;60.29;100066.47;5080444;28;45479;-69
2023/04/13 04:17:47;;;;;;;;;2.25;2.25;;;;;9.27;60.92;100052.50;5064561;27;45350;-70
2023/04/13 04:20:13;;;;;;;;;7.25;2.00;;;;;9.29;60.82;100071.69;5055448;27;45386;-71
2023/04/13 04:22:40;;;;;;;;;2.00;2.00;;;;;9.20;61.04;100063.88;5056110;27;45500;-68
2023/04/13 04:25:07;;;;;;;;;3.25;1.00;;;;;9.25;60.83;100072.56;5055932;27;45430;-69
2023/04/13 04:27:37;;;;;;;;;5.00;2.00;;;;;9.24;60.82;100073.44;5055309;27;45398;-68
2023/04/13 04:30:04;;;;;;;;;2.25;2.00;;;;;9.27;60.92;100085.63;5072339;27;45361;-68
2023/04/13 04:32:32;;;;;;;;;6.75;1.75;;;;;9.26;60.80;100091.75;5089089;27;47981;-70
2023/04/13 04:34:59;;;;;;;;;2.25;1.50;;;;;9.21;61.24;100089.13;5059071;27;45583;-70
2023/04/13 04:37:26;;;;;;;;;2.00;1.25;;;;;9.21;60.84;100091.75;5061780;27;45403;-69
2023/04/13 04:39:54;;;;;;;;;3.00;1.00;;;;;9.20;61.03;100097.81;5086553;27;45504;-68
2023/04/13 04:42:23;;;;;;;;;6.50;2.00;;;;;9.26;60.72;100102.19;5063369;27;45567;-70
2023/04/13 04:44:49;;;;;;;;;2.25;2.25;;;;;9.22;61.05;100101.31;5062454;27;45376;-69
2023/04/13 04:47:15;;;;;;;;;4.75;2.00;;;;;9.20;60.88;100105.66;5065020;27;46044;-68
2023/04/13 04:49:41;;;;;;;;;9.00;2.25;;;;;9.16;61.40;100100.44;5055574;27;45449;-69
2023/04/13 04:52:11;;;;;;;;;2.00;2.00;;;;;9.08;61.24;100092.63;5061534;27;46032;-69
2023/04/13 04:54:38;;;;;;;;;5.25;1.75;;;;;9.18;61.18;100115.25;5065189;27;45488;-69
2023/04/13 04:57:04;;;;;;;;;1.00;1.00;;;;;9.13;61.45;100112.69;5065412;27;45776;-68
2023/04/13 04:59:29;;;;;;;;;4.00;2.50;;;;;9.10;61.33;100103.97;5055634;27;45787;-70
2023/04/13 05:01:56;;;;;;;;;3.00;1.00;;;;;9.15;61.09;100112.66;5088492;27;45436;-69
2023/04/13 05:04:22;;;;;;;;;5.25;2.75;;;;;9.11;61.48;100110.91;5054987;27;45348;-68
2023/04/13 05:06:48;;;;;;;;;2.75;1.25;;;;;9.15;61.42;100119.63;5067203;28;45365;-69
2023/04/13 05:09:13;;;;;;;;;5.00;2.00;;;;;9.16;61.50;100135.31;5073304;27;45461;-68
2023/04/13 05:11:40;;;;;;;;;6.50;2.00;;;;;9.08;61.80;100119.63;5061399;27;45586;-68
2023/04/13 05:14:05;;;;;;;;;4.25;2.25;;;;;9.13;62.07;100138.81;5059070;27;45402;-69
2023/04/13 05:16:32;;;;;;;;;5.00;2.00;;;;;9.16;61.68;100140.53;5071050;27;45495;-69
2023/04/13 05:18:58;;;;;;;;;2.50;2.25;;;;;9.16;61.66;100142.25;5055725;28;45668;-68
2023/04/13 05:21:25;;;;;;;;;4.75;3.00;;;;;9.10;61.81;100138.78;5059943;27;45523;-68
2023/04/13 05:23:51;;;;;;;;;5.00;2.00;;;;;9.15;62.18;100154.47;5061164;27;45456;-68
2023/04/13 05:26:17;;;;;;;;;3.25;3.25;;;;;9.10;62.21;100150.97;5060508;27;45461;-68
2023/04/13 05:28:42;;;;;;;;;4.75;2.25;;;;;9.13;62.11;100153.59;5059120;27;45301;-69
2023/04/13 05:31:09;;;;;;;;;1.75;1.75;;;;;9.17;61.92;100165.78;5065320;27;45465;-68
2023/04/13 05:33:36;;;;;;;;;5.50;1.00;;;;;9.24;61.88;100166.66;5057681;27;45382;-68
2023/04/13 05:36:03;;;;;;;;;8.00;3.75;;;;;9.27;61.72;100172.72;5074997;28;45512;-68
2023/04/13 05:38:29;;;;;;;;;4.00;2.00;;;;;9.24;62.06;100161.41;5072864;27;45587;-70
2023/04/13 05:40:54;;;;;;;;;4.25;2.00;;;;;9.28;61.78;100158.81;5059179;27;46093;-69
2023/04/13 05:43:21;;;;;;;;;8.00;4.00;;;;;9.39;61.67;100173.59;5060409;27;45331;-68
2023/04/13 05:45:47;;;;;;;;;6.75;2.25;;;;;9.36;61.63;100170.97;5057708;27;45461;-68
2023/04/13 05:48:13;;;;;;;;;5.75;3.75;;;;;9.36;61.53;100152.69;5056688;27;45491;-69
2023/04/13 05:50:38;;;;;;;;;4.00;2.00;;;;;9.49;61.45;100162.22;5057451;27;46939;-69
2023/04/13 05:53:04;;;;;;;;;8.25;2.00;;;;;9.51;61.43;100163.09;5063836;27;45426;-69
2023/04/13 05:55:31;;;;;;;;;3.75;2.75;;;;;9.58;61.42;100172.66;5070888;27;45667;-68
2023/04/13 05:57:57;;;;;;;;;7.00;3.50;;;;;9.62;61.02;100165.69;5071723;28;46543;-69
2023/04/13 06:00:23;;;;;;;;;7.00;2.25;;;;;9.70;60.76;100164.75;5067307;27;46220;-71
2023/04/13 06:02:49;;;;;;;;;3.75;3.25;;;;;9.86;60.48;100186.50;5061836;27;45572;-69
2023/04/13 06:05:16;;;;;;;;;6.25;3.00;;;;;9.91;60.21;100165.56;5059923;27;45499;-69
2023/04/13 06:07:45;;;;;;;;;3.25;1.75;;;;;9.94;59.63;100149.84;5070955;28;45330;-69
2023/04/13 06:10:18;;;;;;;;;5.25;3.50;;;;;10.08;59.66;100179.44;5074693;27;45706;-69
2023/04/13 06:12:47;;;;;;;;;6.00;3.25;;;;;10.12;59.58;100188.16;5076096;27;45831;-68
2023/04/13 06:15:13;;;;;;;;;4.25;2.75;;;;;10.17;59.57;100182.00;5075123;28;45765;-68
2023/04/13 06:17:39;;;;;;;;;4.00;2.25;;;;;10.18;59.59;100185.50;5090206;27;45425;-69
2023/04/13 06:20:06;;;;;;;;;5.50;2.25;;;;;10.15;59.56;100165.44;5074492;28;45890;-68
2023/04/13 06:22:32;;;;;;;;;6.75;2.25;;;;;10.19;59.28;100175.00;5064806;27;45608;-68
2023/04/13 06:24:57;;;;;;;;;1.75;1.00;;;;;10.30;59.17;100187.22;5102659;27;45340;-69
2023/04/13 06:27:23;;;;;;;;;4.25;2.25;;;;;10.32;59.09;100191.56;5088174;27;45578;-69
2023/04/13 06:29:49;;;;;;;;;6.75;2.00;;;;;10.35;58.99;100190.69;5077201;28;47776;-69
2023/04/13 06:32:15;;;;;;;;;4.75;2.00;;;;;10.28;58.96;100176.75;5077561;28;45373;-67
2023/04/13 06:34:40;;;;;;;;;3.00;2.75;;;;;10.35;58.72;100185.44;5078716;28;45590;-69
2023/04/13 06:37:06;;;;;;;;;3.50;1.00;;;;;10.50;58.96;100194.94;5074036;27;45397;-69
2023/04/13 06:39:36;;;;;;;;;4.50;3.00;;;;;10.50;58.86;100192.34;5073004;28;48064;-69
2023/04/13 06:42:05;;;;;;;;;6.25;2.00;;;;;10.61;58.51;100199.25;5074330;27;45567;-68
2023/04/13 06:44:31;;;;;;;;;3.50;3.25;;;;;10.68;57.78;100189.59;5074550;27;45546;-69
2023/04/13 06:46:56;;;;;;;;;6.00;3.50;;;;;10.78;58.04;100200.88;5090503;27;45509;-70
2023/04/13 06:49:22;;;;;;;;;3.00;1.00;;;;;10.87;57.65;100192.94;5110267;27;45500;-69
2023/04/13 06:51:47;;;;;;;;;3.50;2.00;;;;;10.90;57.33;100181.56;5077157;27;45452;-68
2023/04/13 06:54:13;;;;;;;;;7.25;2.50;;;;;10.93;57.03;100184.16;5054756;27;45674;-67
2023/04/13 06:56:39;;;;;;;;;9.75;7.00;;;;;11.13;56.63;100195.34;5053923;27;45781;-70
2023/04/13 06:59:05;;;;;;;;;7.75;2.00;;;;;11.18;56.46;100197.94;5053256;27;46184;-69
2023/04/13 07:01:30;;;;;;;;;3.50;2.25;;;;;11.15;55.92;100175.25;5075231;27;45483;-70
2023/04/13 07:03:57;;;;;;;;;2.75;2.00;;;;;11.21;55.98;100174.31;5065812;27;45544;-70
2023/04/13 07:06:23;;;;;;;;;5.00;2.75;;;;;11.38;55.64;100192.47;5076422;28;45726;-69
2023/04/13 07:08:48;;;;;;;;;2.00;2.00;;;;;11.44;55.71;100190.66;5078197;28;45934;-69
2023/04/13 07:11:14;;;;;;;;;5.00;4.00;;;;;11.56;55.08;100194.06;5077952;27;45433;-68
2023/04/13 07:13:39;;;;;;;;;5.00;3.00;;;;;11.67;54.63;100203.56;5076021;28;45429;-69
2023/04/13 07:16:07;;;;;;;;;5.00;2.00;;;;;11.62;54.93;100194.84;5071826;28;45846;-69
2023/04/13 07:18:33;;;;;;;;;10.00;3.00;;;;;11.68;55.06;100207.91;5051604;28;45587;-68
2023/04/13 07:20:59;;;;;;;;;6.25;4.75;;;;;11.80;54.51;100209.53;5053513;28;45484;-69
2023/04/13 07:23:25;;;;;;;;;5.25;3.50;;;;;11.83;54.23;100201.59;5063256;27;45608;-70
2023/04/13 07:25:50;;;;;;;;;3.00;2.25;;;;;11.97;54.24;100201.47;5054233;27;45425;-71
2023/04/13 07:28:16;;;;;;;;;3.50;2.25;;;;;11.99;54.27;100209.34;5054946;27;46449;-68
2023/04/13 07:30:43;;;;;;;;;4.75;2.25;;;;;12.08;54.04;100214.47;5051588;28;46190;-71
2023/04/13 07:33:08;;;;;;;;;2.00;1.50;;;;;12.15;56.47;100216.13;5052185;27;45430;-72
2023/04/13 07:35:35;;;;;;;;;4.75;3.00;;;;;12.29;56.29;100203.69;5053845;27;45680;-72
2023/04/13 07:38:01;;;;;;;;;3.00;3.00;;;;;12.32;54.07;100208.03;5061030;27;48112;-69
2023/04/13 07:40:26;;;;;;;;;4.00;1.75;;;;;12.23;54.16;100181.91;5060698;28;45465;-71
2023/04/13 07:42:52;;;;;;;;;5.00;3.00;;;;;12.44;53.42;100215.75;5063840;27;45605;-69
2023/04/13 07:45:19;;;;;;;;;5.75;2.75;;;;;12.54;52.70;100224.34;5072596;27;45555;-73
2023/04/13 07:47:45;;;;;;;;;3.50;2.25;;;;;12.62;52.46;100230.34;5053435;28;48122;-71
2023/04/13 07:50:12;;;;;;;;;2.00;1.00;;;;;12.68;52.28;100235.53;5074450;27;45561;-70
2023/04/13 07:52:38;;;;;;;;;5.00;1.50;;;;;12.64;52.94;100230.34;5068143;27;45436;-68
2023/04/13 07:55:04;;;;;;;;;14.50;13.00;;;;;12.80;56.63;100241.50;5061406;27;45432;-69
2023/04/13 07:57:30;;;;;;;;;4.50;3.00;;;;;12.63;52.65;100221.59;5060770;27;46086;-69
2023/04/13 07:59:56;;;;;;;;;3.75;2.50;;;;;12.72;52.49;100228.50;5058053;27;45791;-71
2023/04/13 08:02:22;;;;;;;;;3.00;2.00;;;;;12.97;52.20;100250.00;5066171;27;45361;-72
2023/04/13 08:04:48;;;;;;;;;3.00;2.00;;;;;13.12;51.94;100249.75;5056534;27;45439;-69
2023/04/13 08:07:13;;;;;;;;;4.33;2.00;;;;;13.06;51.47;100252.47;5068189;27;46234;-71
2023/04/13 08:09:41;;;;;;;;;3.25;2.00;;;;;12.94;51.52;100235.13;5078666;28;45463;-70
2023/04/13 08:12:07;;;;;;;;;4.00;3.75;;;;;13.16;51.27;100254.06;5096631;27;45460;-73
2023/04/13 08:14:33;;;;;;;;;1.33;1.33;;;;;13.33;51.26;100242.44;5080899;28;45492;-71
2023/04/13 08:17:00;;;;;;;;;7.50;4.00;;;;;13.52;52.21;100254.34;5077474;28;45952;-72
2023/04/13 08:19:26;;;;;;;;;10.75;3.00;;;;;13.64;53.30;100245.38;5075678;28;45724;-75
2023/04/13 08:21:53;;;;;;;;;4.00;2.00;;;;;13.76;50.89;100265.34;5092858;27;45425;-72
2023/04/13 08:24:19;;;;;;;;;4.33;2.00;;;;;13.85;53.38;100246.75;5090592;27;45405;-71
2023/04/13 08:26:45;;;;;;;;;5.00;2.00;;;;;14.03;50.47;100248.16;5093822;27;45984;-73
2023/04/13 08:29:13;;;;;;;;;3.67;2.00;;;;;14.09;49.46;100252.41;5077416;27;45516;-73
2023/04/13 08:31:39;;;;;;;;;6.00;2.00;;;;;14.14;50.58;100248.81;5076478;28;45474;-73
2023/04/13 08:34:05;;;;;;;;;6.00;2.00;;;;;14.30;48.74;100253.75;5079113;28;45610;-71
2023/04/13 08:36:32;;;;;;;;;3.67;1.67;;;;;14.22;48.47;100259.19;5076036;28;46182;-71
2023/04/13 08:38:57;;;;;;;;;31.75;24.25;;;;;14.18;50.24;100261.00;5076667;27;45594;-71
2023/04/13 08:41:24;;;;;;;;;28.25;26.50;;;;;14.22;48.53;100256.56;5075270;27;45500;-71
2023/04/13 08:43:50;;;;;;;;;8.67;7.67;;;;;14.29;49.34;100257.28;5076893;28;45493;-74
2023/04/13 08:46:20;;;;;;;;;4.00;2.00;;;;;14.38;48.01;100257.97;5074904;28;46784;-72
2023/04/13 08:48:47;;;;;;;;;6.67;2.00;;;;;14.45;47.18;100269.25;5075008;28;46004;-72
2023/04/13 08:51:13;;;;;;;;;4.33;2.00;;;;;14.36;47.17;100269.44;5069584;28;45839;-71
2023/04/13 08:53:40;;;;;;;;;2.00;2.00;;;;;14.45;48.18;100265.72;5075960;28;45421;-70
2023/04/13 08:56:09;;;;;;;;;3.33;2.67;;;;;14.49;46.81;100270.91;5076114;28;45423;-69
2023/04/13 08:58:41;;;;;;;;;3.00;2.00;;;;;14.45;46.02;100269.25;5079242;28;45317;-71
2023/04/13 09:01:12;;;;;;;;;3.00;2.00;;;;;14.29;46.36;100273.97;5078962;28;45584;-71
2023/04/13 09:03:52;;;;;;;;;5.00;3.00;;;;;14.32;46.78;100278.31;5079086;27;45515;-69
2023/04/13 09:06:31;;;;;;;;;11.00;2.67;;;;;14.36;45.75;100272.94;5082807;27;46757;-71
2023/04/13 09:08:58;;;;;;;;;6.33;3.00;;;;;14.42;50.37;100264.03;5071255;28;45504;-69
2023/04/13 09:11:24;;;;;;;;;4.67;2.00;;;;;14.58;46.91;100275.16;5079234;28;45507;-71
2023/04/13 09:13:51;;;;;;;;;2.00;2.00;;;;;14.67;45.78;100258.28;5069151;27;45323;-71
2023/04/13 09:16:19;;;;;;;;;4.00;1.33;;;;;14.66;45.32;100272.34;5063148;27;45778;-71
2023/04/13 09:18:52;;;;;;;;;1.67;1.67;;;;;14.64;45.47;100290.84;5059556;27;45990;-71
2023/04/13 09:21:18;;;;;;;;;6.00;2.00;;;;;14.74;44.22;100268.63;5092527;27;45360;-70
2023/04/13 09:23:58;;;;;;;;;3.00;1.67;;;;;14.82;44.45;100277.22;5059097;27;45346;-70
2023/04/13 09:26:24;;;;;;;;;2.00;2.00;;;;;14.80;43.61;100263.19;5058928;27;45370;-71
2023/04/13 09:28:53;;;;;;;;;6.00;2.33;;;;;14.90;44.63;100269.16;5061479;28;45732;-71
2023/04/13 09:31:19;;;;;;;;;7.33;1.00;;;;;14.95;44.42;100258.47;5055234;27;45421;-71
2023/04/13 09:33:47;;;;;;;;;4.00;1.00;;;;;14.89;45.40;100259.50;5053870;27;45497;-71
2023/04/13 09:36:16;;;;;;;;;4.33;2.67;;;;;14.77;46.27;100247.47;5058291;27;46163;-70
2023/04/13 09:38:44;;;;;;;;;3.00;1.00;;;;;15.02;45.42;100282.06;5054820;27;45613;-72
2023/04/13 09:41:09;;;;;;;;;2.00;1.00;;;;;15.22;44.62;100263.09;5055481;27;45482;-71
2023/04/13 09:43:36;;;;;;;;;3.33;2.00;;;;;15.46;44.32;100255.47;5055452;27;45545;-72
2023/04/13 09:46:03;;;;;;;;;2.00;2.00;;;;;15.78;42.14;100261.69;5055208;27;45497;-72
2023/04/13 09:48:30;;;;;;;;;3.67;1.00;;;;;15.77;44.61;100273.19;5067380;27;45787;-72
2023/04/13 09:51:00;;;;;;;;;3.00;1.00;;;;;15.73;44.79;100258.31;5093065;27;45461;-70
2023/04/13 09:53:28;;;;;;;;;6.00;2.67;;;;;15.95;44.34;100262.13;5059384;27;45492;-71
2023/04/13 09:55:59;;;;;;;;;2.67;2.00;;;;;16.09;43.54;100252.03;5057470;27;46096;-69
2023/04/13 09:58:26;;;;;;;;;2.67;1.00;;;;;16.38;42.99;100254.75;5063534;28;45445;-71
2023/04/13 10:00:52;;;;;;;;;5.33;1.00;;;;;16.17;41.08;100254.44;5055467;27;45461;-73
2023/04/13 10:03:21;;;;;;;;;3.00;2.00;;;;;16.02;41.79;100255.75;5061606;28;45912;-71
2023/04/13 10:05:47;;;;;;;;;1.00;1.00;;;;;15.98;41.00;100263.81;5057244;27;46321;-68
2023/04/13 10:08:13;;;;;;;;;4.67;2.00;;;;;15.62;40.26;100233.03;5074321;28;45444;-70
2023/04/13 10:10:39;;;;;;;;;3.00;2.00;;;;;16.00;40.08;100267.28;5073728;28;45299;-71
2023/04/13 10:13:25;;;;;;;;;1.33;1.33;;;;;16.05;39.06;100260.94;5075119;27;45291;-70
2023/04/13 10:16:18;;;;;;;;;1.33;1.33;;;;;16.09;37.93;100252.03;5076874;28;47636;-69
2023/04/13 10:18:59;;;;;;;;;1.67;1.67;;;;;16.16;37.62;100265.94;5076130;28;45488;-69
2023/04/13 10:21:32;;;;;;;;;1.33;1.33;;;;;16.20;37.55;100261.41;5090400;27;45448;-69
2023/04/13 10:23:58;;;;;;;;;4.00;1.00;;;;;16.27;36.21;100260.31;5075366;28;45477;-69
2023/04/13 10:26:33;;;;;;;;;2.00;1.00;;;;;16.18;37.52;100235.03;5073959;28;46242;-69
2023/04/13 10:29:00;;;;;;;;;3.00;1.00;;;;;16.41;38.27;100262.56;5074465;28;45543;-69
2023/04/13 10:31:40;;;;;;;;;2.00;1.00;;;;;16.62;37.17;100269.84;5074807;28;45934;-70
2023/04/13 10:34:07;;;;;;;;;1.33;1.00;;;;;16.36;35.15;100257.41;5073511;27;45516;-69
2023/04/13 10:36:43;;;;;;;;;2.33;1.00;;;;;16.30;36.17;100225.88;5072571;28;46316;-68
2023/04/13 10:39:09;;;;;;;;;2.00;1.00;;;;;16.58;35.79;100243.56;5074192;27;45491;-70
2023/04/13 10:41:37;;;;;;;;;1.00;1.00;;;;;16.72;35.83;100241.34;5086210;27;45467;-69
2023/04/13 10:44:07;;;;;;;;;4.33;1.00;;;;;16.84;35.85;100246.28;5090182;27;45440;-69
2023/04/13 10:46:34;;;;;;;;;1.00;1.00;;;;;16.93;36.06;100243.34;5077124;27;45398;-69
2023/04/13 10:49:02;;;;;;;;;0.33;0.00;;;;;16.52;35.78;100226.97;5076849;28;45377;-68
2023/04/13 10:51:42;;;;;;;;;3.00;1.00;;;;;16.15;36.93;100239.56;5078319;27;45270;-69
2023/04/13 10:54:08;;;;;;;;;3.00;1.00;;;;;16.25;35.96;100244.53;5092645;27;46081;-70
2023/04/13 10:56:35;;;;;;;;;3.00;1.00;;;;;16.12;35.60;100245.78;5073252;28;47881;-71
2023/04/13 10:59:00;;;;;;;;;1.00;1.00;;;;;16.04;36.07;100253.06;5075115;28;45501;-68
2023/04/13 11:01:29;;;;;;;;;2.33;1.00;;;;;15.94;36.32;100247.16;5074938;27;45410;-71
2023/04/13 11:03:56;;;;;;;;;2.00;2.00;;;;;15.85;36.17;100237.75;5090507;27;45608;-70
2023/04/13 11:06:23;;;;;;;;;1.67;1.33;;;;;15.72;36.30;100244.25;5062519;28;47237;-70
2023/04/13 11:08:48;;;;;;;;;1.00;1.00;;;;;15.66;37.01;100252.28;5074707;28;45435;-69
2023/04/13 11:11:24;;;;;;;;;2.00;1.67;;;;;15.71;36.81;100255.75;5106483;27;45391;-69
2023/04/13 11:13:49;;;;;;;;;1.00;1.00;;;;;15.92;36.96;100264.81;5074432;27;45547;-69
2023/04/13 11:16:15;;;;;;;;;3.33;0.33;;;;;16.19;37.71;100260.56;5074174;27;47276;-68
2023/04/13 11:18:40;;;;;;;;;4.67;2.00;;;;;16.28;36.60;100246.22;5072484;27;45453;-70
2023/04/13 11:21:14;;;;;;;;;2.00;1.33;;;;;16.10;35.90;100240.53;5073368;28;45555;-71
2023/04/13 11:23:40;;;;;;;;;4.67;1.00;;;;;16.13;36.30;100221.09;5077504;27;45638;-70
2023/04/13 11:26:07;;;;;;;;;2.00;1.00;;;;;16.37;36.60;100250.34;5107399;27;45501;-72
2023/04/13 11:28:39;;;;;;;;;5.67;1.00;;;;;16.16;36.66;100218.38;5089320;27;45604;-72
2023/04/13 11:31:06;;;;;;;;;2.67;1.00;;;;;16.19;36.98;100231.50;5077551;28;45500;-71
2023/04/13 11:33:32;;;;;;;;;1.00;1.00;;;;;16.09;37.71;100228.25;5076558;28;45765;-70